sensor_id;sensor_type;location;lat;lon;timestamp;temperature;humidity
7212;DHT22;3647;48.792;9.802;2024-03-08T06:31:33;2.80;99.90
7212;DHT22;3647;48.792;9.802;2024-03-08T06:38:54;2.70;99.90
7212;DHT22;3647;48.792;9.802;2024-03-08T06:41:22;2.70;99.90
7212;DHT22;3647;48.792;9.802;2024-03-08T06:43:49;2.70;99.90
7212;DHT22;3647;48.792;9.802;2024-03-08T06:46:17;2.70;99.90
7212;DHT22;3647;48.792;9.802;2024-03-08T06:48:47;2.80;99.90
7212;DHT22;3647;48.792;9.802;2024-03-08T06:51:14;2.80;99.90
7212;DHT22;3647;48.792;9.802;2024-03-08T06:53:41;2.80;99.90
7212;DHT22;3647;48.792;9.802;2024-03-08T06:56:09;2.80;99.90
7212;DHT22;3647;48.792;9.802;2024-03-08T06:58:36;2.80;99.90
7212;DHT22;3647;48.792;9.802;2024-03-08T07:01:03;2.80;99.90
7212;DHT22;3647;48.792;9.802;2024-03-08T07:03:32;2.70;99.90
7212;DHT22;3647;48.792;9.802;2024-03-08T07:06:01;2.70;99.90
7212;DHT22;3647;48.792;9.802;2024-03-08T07:08:28;2.70;99.90
7212;DHT22;3647;48.792;9.802;2024-03-08T07:10:55;2.80;99.90
7212;DHT22;3647;48.792;9.802;2024-03-08T07:13:23;2.80;99.90
7212;DHT22;3647;48.792;9.802;2024-03-08T07:15:50;2.90;99.90
7212;DHT22;3647;48.792;9.802;2024-03-08T07:18:17;3.10;99.90
7212;DHT22;3647;48.792;9.802;2024-03-08T07:20:44;2.90;99.90
7212;DHT22;3647;48.792;9.802;2024-03-08T07:23:13;2.80;99.90
7212;DHT22;3647;48.792;9.802;2024-03-08T07:26:00;2.90;99.90
7212;DHT22;3647;48.792;9.802;2024-03-08T07:28:27;3.90;99.90
7212;DHT22;3647;48.792;9.802;2024-03-08T07:30:57;4.10;99.90
7212;DHT22;3647;48.792;9.802;2024-03-08T07:33:38;3.60;99.90
7212;DHT22;3647;48.792;9.802;2024-03-08T07:36:05;2.90;99.90
7212;DHT22;3647;48.792;9.802;2024-03-08T07:38:34;3.00;99.90
7212;DHT22;3647;48.792;9.802;2024-03-08T07:41:00;3.00;99.90
7212;DHT22;3647;48.792;9.802;2024-03-08T07:43:27;3.00;99.90
7212;DHT22;3647;48.792;9.802;2024-03-08T07:45:54;3.40;99.90
7212;DHT22;3647;48.792;9.802;2024-03-08T07:48:21;3.00;99.90
7212;DHT22;3647;48.792;9.802;2024-03-08T07:50:48;3.00;99.90
7212;DHT22;3647;48.792;9.802;2024-03-08T07:53:16;3.00;99.90
7212;DHT22;3647;48.792;9.802;2024-03-08T07:55:44;3.00;99.90
7212;DHT22;3647;48.792;9.802;2024-03-08T07:58:11;3.00;99.90
7212;DHT22;3647;48.792;9.802;2024-03-08T08:00:39;3.10;99.90
7212;DHT22;3647;48.792;9.802;2024-03-08T08:03:08;3.00;99.90
7212;DHT22;3647;48.792;9.802;2024-03-08T08:05:35;3.10;99.90
7212;DHT22;3647;48.792;9.802;2024-03-08T08:08:04;3.10;99.90
7212;DHT22;3647;48.792;9.802;2024-03-08T08:10:32;3.10;99.90
7212;DHT22;3647;48.792;9.802;2024-03-08T08:13:00;3.20;99.90
7212;DHT22;3647;48.792;9.802;2024-03-08T08:15:30;3.20;99.90
7212;DHT22;3647;48.792;9.802;2024-03-08T08:17:57;3.30;99.90
7212;DHT22;3647;48.792;9.802;2024-03-08T08:20:24;3.20;99.90
7212;DHT22;3647;48.792;9.802;2024-03-08T08:22:51;3.30;99.90
7212;DHT22;3647;48.792;9.802;2024-03-08T08:25:20;3.50;99.90
7212;DHT22;3647;48.792;9.802;2024-03-08T08:27:49;3.50;99.90
7212;DHT22;3647;48.792;9.802;2024-03-08T08:30:18;3.50;99.90
7212;DHT22;3647;48.792;9.802;2024-03-08T08:32:45;3.60;99.90
7212;DHT22;3647;48.792;9.802;2024-03-08T08:35:12;3.60;99.90
7212;DHT22;3647;48.792;9.802;2024-03-08T08:37:39;3.60;99.90
7212;DHT22;3647;48.792;9.802;2024-03-08T08:40:07;3.50;99.90
7212;DHT22;3647;48.792;9.802;2024-03-08T08:42:36;3.50;99.90
7212;DHT22;3647;48.792;9.802;2024-03-08T08:45:04;3.50;99.90
7212;DHT22;3647;48.792;9.802;2024-03-08T08:47:35;3.60;99.90
7212;DHT22;3647;48.792;9.802;2024-03-08T08:50:02;6.50;99.90
7212;DHT22;3647;48.792;9.802;2024-03-08T08:52:30;3.70;99.90
7212;DHT22;3647;48.792;9.802;2024-03-08T08:54:57;3.70;99.90
7212;DHT22;3647;48.792;9.802;2024-03-08T08:57:24;3.70;99.90
7212;DHT22;3647;48.792;9.802;2024-03-08T08:59:52;3.80;99.90
7212;DHT22;3647;48.792;9.802;2024-03-08T09:02:20;6.40;99.90
7212;DHT22;3647;48.792;9.802;2024-03-08T09:04:49;3.70;99.90
7212;DHT22;3647;48.792;9.802;2024-03-08T09:07:16;3.90;99.90
7212;DHT22;3647;48.792;9.802;2024-03-08T09:09:44;3.90;99.90
7212;DHT22;3647;48.792;9.802;2024-03-08T09:12:11;4.10;99.90
7212;DHT22;3647;48.792;9.802;2024-03-08T09:14:48;5.10;99.90
7212;DHT22;3647;48.792;9.802;2024-03-08T09:17:14;4.30;99.90
7212;DHT22;3647;48.792;9.802;2024-03-08T09:19:46;5.60;99.90
7212;DHT22;3647;48.792;9.802;2024-03-08T09:22:15;4.50;99.90
7212;DHT22;3647;48.792;9.802;2024-03-08T09:24:43;4.60;99.90
7212;DHT22;3647;48.792;9.802;2024-03-08T09:27:11;4.60;99.90
7212;DHT22;3647;48.792;9.802;2024-03-08T09:29:39;5.20;99.90
7212;DHT22;3647;48.792;9.802;2024-03-08T09:32:06;7.00;99.90
7212;DHT22;3647;48.792;9.802;2024-03-08T09:34:33;4.70;99.90
7212;DHT22;3647;48.792;9.802;2024-03-08T09:37:00;4.80;99.90
7212;DHT22;3647;48.792;9.802;2024-03-08T09:39:31;4.90;99.90
7212;DHT22;3647;48.792;9.802;2024-03-08T09:41:59;4.90;99.90
7212;DHT22;3647;48.792;9.802;2024-03-08T09:44:26;4.60;99.90
7212;DHT22;3647;48.792;9.802;2024-03-08T09:46:54;6.00;99.90
7212;DHT22;3647;48.792;9.802;2024-03-08T09:49:23;6.30;99.90
7212;DHT22;3647;48.792;9.802;2024-03-08T09:51:50;5.10;99.90
7212;DHT22;3647;48.792;9.802;2024-03-08T09:54:18;6.10;99.90
7212;DHT22;3647;48.792;9.802;2024-03-08T09:56:48;8.00;99.90
7212;DHT22;3647;48.792;9.802;2024-03-08T09:59:15;5.10;99.90
7212;DHT22;3647;48.792;9.802;2024-03-08T10:02:08;5.00;99.90
7212;DHT22;3647;48.792;9.802;2024-03-08T10:04:40;5.20;99.90
7212;DHT22;3647;48.792;9.802;2024-03-08T10:07:07;5.30;99.90
7212;DHT22;3647;48.792;9.802;2024-03-08T10:09:34;6.10;99.90
7212;DHT22;3647;48.792;9.802;2024-03-08T10:12:04;5.30;99.90
7212;DHT22;3647;48.792;9.802;2024-03-08T10:14:31;5.20;99.90
7212;DHT22;3647;48.792;9.802;2024-03-08T10:16:58;5.00;99.90
7212;DHT22;3647;48.792;9.802;2024-03-08T10:19:25;4.90;99.90
7212;DHT22;3647;48.792;9.802;2024-03-08T10:21:52;5.00;99.90
7212;DHT22;3647;48.792;9.802;2024-03-08T10:24:22;5.30;99.90
7212;DHT22;3647;48.792;9.802;2024-03-08T10:26:52;5.30;99.90
7212;DHT22;3647;48.792;9.802;2024-03-08T10:29:20;5.90;99.90
7212;DHT22;3647;48.792;9.802;2024-03-08T10:31:47;5.40;99.90
7212;DHT22;3647;48.792;9.802;2024-03-08T10:34:17;5.50;99.90
7212;DHT22;3647;48.792;9.802;2024-03-08T10:36:44;5.60;99.90
7212;DHT22;3647;48.792;9.802;2024-03-08T10:39:21;5.90;99.90
7212;DHT22;3647;48.792;9.802;2024-03-08T10:41:53;6.00;99.90
7212;DHT22;3647;48.792;9.802;2024-03-08T10:44:36;3.40;99.90
7212;DHT22;3647;48.792;9.802;2024-03-08T10:47:15;6.20;99.90
7212;DHT22;3647;48.792;9.802;2024-03-08T10:49:50;5.80;99.90
7212;DHT22;3647;48.792;9.802;2024-03-08T10:52:19;5.90;99.90
7212;DHT22;3647;48.792;9.802;2024-03-08T10:54:48;6.00;99.90
7212;DHT22;3647;48.792;9.802;2024-03-08T10:57:17;8.00;99.90
7212;DHT22;3647;48.792;9.802;2024-03-08T10:59:47;3.90;99.90
7212;DHT22;3647;48.792;9.802;2024-03-08T11:02:16;6.50;99.90
7212;DHT22;3647;48.792;9.802;2024-03-08T11:04:48;6.20;99.90
7212;DHT22;3647;48.792;9.802;2024-03-08T11:07:16;6.30;99.90
7212;DHT22;3647;48.792;9.802;2024-03-08T11:09:47;6.40;99.90
7212;DHT22;3647;48.792;9.802;2024-03-08T11:12:25;6.30;99.90
7212;DHT22;3647;48.792;9.802;2024-03-08T11:14:59;6.20;99.90
7212;DHT22;3647;48.792;9.802;2024-03-08T11:17:47;6.40;99.90
7212;DHT22;3647;48.792;9.802;2024-03-08T11:20:15;6.80;99.90
7212;DHT22;3647;48.792;9.802;2024-03-08T11:22:48;6.90;99.90
7212;DHT22;3647;48.792;9.802;2024-03-08T11:25:37;6.90;99.90
7212;DHT22;3647;48.792;9.802;2024-03-08T11:28:17;7.00;99.90
7212;DHT22;3647;48.792;9.802;2024-03-08T11:30:47;8.40;99.90
7212;DHT22;3647;48.792;9.802;2024-03-08T11:33:36;9.20;99.90
7212;DHT22;3647;48.792;9.802;2024-03-08T11:36:03;7.10;99.90
7212;DHT22;3647;48.792;9.802;2024-03-08T11:38:40;7.10;99.90
7212;DHT22;3647;48.792;9.802;2024-03-08T11:41:07;7.10;99.90
7212;DHT22;3647;48.792;9.802;2024-03-08T11:43:34;7.20;99.90
7212;DHT22;3647;48.792;9.802;2024-03-08T11:46:09;7.40;99.90
7212;DHT22;3647;48.792;9.802;2024-03-08T11:48:37;7.50;99.90
7212;DHT22;3647;48.792;9.802;2024-03-08T11:51:04;7.60;99.90
7212;DHT22;3647;48.792;9.802;2024-03-08T11:53:31;7.70;99.90
7212;DHT22;3647;48.792;9.802;2024-03-08T11:56:06;7.80;99.90
7212;DHT22;3647;48.792;9.802;2024-03-08T11:58:33;8.70;99.90
7212;DHT22;3647;48.792;9.802;2024-03-08T12:01:03;7.70;99.90
7212;DHT22;3647;48.792;9.802;2024-03-08T12:03:32;7.70;99.90
7212;DHT22;3647;48.792;9.802;2024-03-08T12:06:00;7.70;99.90
7212;DHT22;3647;48.792;9.802;2024-03-08T12:08:27;7.80;99.90
7212;DHT22;3647;48.792;9.802;2024-03-08T12:10:55;7.90;99.90
7212;DHT22;3647;48.792;9.802;2024-03-08T12:13:25;8.00;99.90
7212;DHT22;3647;48.792;9.802;2024-03-08T12:15:55;8.10;99.90
7212;DHT22;3647;48.792;9.802;2024-03-08T12:18:24;8.10;99.90
7212;DHT22;3647;48.792;9.802;2024-03-08T12:20:54;8.10;99.90
7212;DHT22;3647;48.792;9.802;2024-03-08T12:23:32;8.20;99.90
7212;DHT22;3647;48.792;9.802;2024-03-08T12:26:09;8.40;99.90
7212;DHT22;3647;48.792;9.802;2024-03-08T12:28:38;8.30;99.90
7212;DHT22;3647;48.792;9.802;2024-03-08T12:31:07;8.10;99.90
7212;DHT22;3647;48.792;9.802;2024-03-08T12:33:36;8.10;99.90
7212;DHT22;3647;48.792;9.802;2024-03-08T12:36:04;8.20;99.90
7212;DHT22;3647;48.792;9.802;2024-03-08T12:38:33;8.30;99.90
7212;DHT22;3647;48.792;9.802;2024-03-08T12:41:01;8.30;99.90
7212;DHT22;3647;48.792;9.802;2024-03-08T12:43:30;8.50;99.90
7212;DHT22;3647;48.792;9.802;2024-03-08T12:45:57;8.60;99.90
7212;DHT22;3647;48.792;9.802;2024-03-08T12:48:24;8.70;99.90
7212;DHT22;3647;48.792;9.802;2024-03-08T12:50:51;8.80;99.90
7212;DHT22;3647;48.792;9.802;2024-03-08T12:53:20;10.70;99.90
7212;DHT22;3647;48.792;9.802;2024-03-08T12:55:48;9.00;99.90
7212;DHT22;3647;48.792;9.802;2024-03-08T12:58:15;9.00;99.90
7212;DHT22;3647;48.792;9.802;2024-03-08T13:00:43;10.30;99.90
7212;DHT22;3647;48.792;9.802;2024-03-08T13:03:09;9.10;99.90
7212;DHT22;3647;48.792;9.802;2024-03-08T13:05:37;9.10;99.90
7212;DHT22;3647;48.792;9.802;2024-03-08T13:08:05;9.00;99.90
7212;DHT22;3647;48.792;9.802;2024-03-08T13:10:39;9.00;99.90
7212;DHT22;3647;48.792;9.802;2024-03-08T13:13:08;9.20;99.90
7212;DHT22;3647;48.792;9.802;2024-03-08T13:15:35;7.80;99.90
7212;DHT22;3647;48.792;9.802;2024-03-08T13:18:02;10.80;99.90
7212;DHT22;3647;48.792;9.802;2024-03-08T13:20:32;9.40;99.90
7212;DHT22;3647;48.792;9.802;2024-03-08T13:23:01;9.40;99.90
7212;DHT22;3647;48.792;9.802;2024-03-08T13:25:28;10.70;99.90
7212;DHT22;3647;48.792;9.802;2024-03-08T13:27:57;9.50;99.90
7212;DHT22;3647;48.792;9.802;2024-03-08T13:30:26;9.50;99.90
7212;DHT22;3647;48.792;9.802;2024-03-08T13:32:53;9.40;99.90
7212;DHT22;3647;48.792;9.802;2024-03-08T13:35:19;9.60;99.90
7212;DHT22;3647;48.792;9.802;2024-03-08T13:37:50;9.60;99.90
7212;DHT22;3647;48.792;9.802;2024-03-08T13:40:18;9.70;99.90
7212;DHT22;3647;48.792;9.802;2024-03-08T13:42:45;9.80;99.90
7212;DHT22;3647;48.792;9.802;2024-03-08T13:45:16;9.80;99.90
7212;DHT22;3647;48.792;9.802;2024-03-08T13:47:48;9.80;99.90
7212;DHT22;3647;48.792;9.802;2024-03-08T13:50:17;10.00;99.90
7212;DHT22;3647;48.792;9.802;2024-03-08T13:52:47;9.90;99.90
7212;DHT22;3647;48.792;9.802;2024-03-08T13:55:16;10.00;99.90
7212;DHT22;3647;48.792;9.802;2024-03-08T13:57:43;10.00;99.90
7212;DHT22;3647;48.792;9.802;2024-03-08T14:00:11;10.10;99.90
7212;DHT22;3647;48.792;9.802;2024-03-08T14:02:40;10.20;99.90
7212;DHT22;3647;48.792;9.802;2024-03-08T14:05:08;10.20;99.90
7212;DHT22;3647;48.792;9.802;2024-03-08T14:07:35;10.20;99.90
7212;DHT22;3647;48.792;9.802;2024-03-08T14:10:02;10.30;99.90
7212;DHT22;3647;48.792;9.802;2024-03-08T14:12:29;10.40;99.90
7212;DHT22;3647;48.792;9.802;2024-03-08T14:14:55;10.40;99.90
7212;DHT22;3647;48.792;9.802;2024-03-08T14:17:25;10.30;99.90
7212;DHT22;3647;48.792;9.802;2024-03-08T14:19:54;10.20;99.90
7212;DHT22;3647;48.792;9.802;2024-03-08T14:22:20;10.40;99.90
7212;DHT22;3647;48.792;9.802;2024-03-08T14:24:48;10.50;99.90
7212;DHT22;3647;48.792;9.802;2024-03-08T14:27:17;10.50;99.90
7212;DHT22;3647;48.792;9.802;2024-03-08T14:29:44;10.50;99.90
7212;DHT22;3647;48.792;9.802;2024-03-08T14:32:11;10.50;99.90
7212;DHT22;3647;48.792;9.802;2024-03-08T14:34:39;10.50;99.90
7212;DHT22;3647;48.792;9.802;2024-03-08T14:37:10;11.50;99.90
7212;DHT22;3647;48.792;9.802;2024-03-08T14:39:54;12.70;99.90
7212;DHT22;3647;48.792;9.802;2024-03-08T14:43:04;13.20;99.90
7212;DHT22;3647;48.792;9.802;2024-03-08T14:45:51;10.70;99.90
7212;DHT22;3647;48.792;9.802;2024-03-08T14:48:26;10.30;99.90
7212;DHT22;3647;48.792;9.802;2024-03-08T14:50:53;12.80;99.90
7212;DHT22;3647;48.792;9.802;2024-03-08T14:53:21;8.30;99.90
7212;DHT22;3647;48.792;9.802;2024-03-08T14:55:55;10.70;99.90
7212;DHT22;3647;48.792;9.802;2024-03-08T15:02:03;10.70;99.90
7212;DHT22;3647;48.792;9.802;2024-03-08T15:05:09;11.80;99.90
7212;DHT22;3647;48.792;9.802;2024-03-08T15:08:03;10.50;99.90
7212;DHT22;3647;48.792;9.802;2024-03-08T15:11:05;10.70;99.90
7212;DHT22;3647;48.792;9.802;2024-03-08T15:14:01;10.80;99.90
7212;DHT22;3647;48.792;9.802;2024-03-08T15:16:55;13.00;99.90
7212;DHT22;3647;48.792;9.802;2024-03-08T15:19:49;10.70;99.90
7212;DHT22;3647;48.792;9.802;2024-03-08T15:22:35;10.30;99.90
7212;DHT22;3647;48.792;9.802;2024-03-08T15:25:34;10.60;99.90
7212;DHT22;3647;48.792;9.802;2024-03-08T15:28:45;10.70;99.90
7212;DHT22;3647;48.792;9.802;2024-03-08T15:32:42;10.60;99.90
7212;DHT22;3647;48.792;9.802;2024-03-08T15:45:25;10.30;99.90
7212;DHT22;3647;48.792;9.802;2024-03-08T15:47:54;10.70;99.90
7212;DHT22;3647;48.792;9.802;2024-03-08T15:50:36;12.30;99.90
7212;DHT22;3647;48.792;9.802;2024-03-08T15:53:13;12.00;99.90
7212;DHT22;3647;48.792;9.802;2024-03-08T15:56:18;9.40;99.90
7212;DHT22;3647;48.792;9.802;2024-03-08T15:59:17;10.40;99.90
7212;DHT22;3647;48.792;9.802;2024-03-08T16:02:02;12.50;99.90
7212;DHT22;3647;48.792;9.802;2024-03-08T16:04:45;10.20;99.90
7212;DHT22;3647;48.792;9.802;2024-03-08T16:07:12;8.20;99.90
7212;DHT22;3647;48.792;9.802;2024-03-08T16:09:41;10.30;99.90
7212;DHT22;3647;48.792;9.802;2024-03-08T16:12:12;10.20;99.90
7212;DHT22;3647;48.792;9.802;2024-03-08T16:14:41;10.20;99.90
7212;DHT22;3647;48.792;9.802;2024-03-08T16:17:10;10.40;99.90
7212;DHT22;3647;48.792;9.802;2024-03-08T16:19:37;10.10;99.90
7212;DHT22;3647;48.792;9.802;2024-03-08T16:22:08;10.20;99.90
7212;DHT22;3647;48.792;9.802;2024-03-08T16:24:35;12.30;99.90
7212;DHT22;3647;48.792;9.802;2024-03-08T16:27:02;10.20;99.90
7212;DHT22;3647;48.792;9.802;2024-03-08T16:29:30;10.10;99.90
7212;DHT22;3647;48.792;9.802;2024-03-08T16:31:57;10.10;99.90
7212;DHT22;3647;48.792;9.802;2024-03-08T16:34:26;11.90;99.90
7212;DHT22;3647;48.792;9.802;2024-03-08T16:36:53;10.00;99.90
7212;DHT22;3647;48.792;9.802;2024-03-08T16:39:20;12.10;99.90
7212;DHT22;3647;48.792;9.802;2024-03-08T16:41:49;9.90;99.90
7212;DHT22;3647;48.792;9.802;2024-03-08T16:44:16;9.90;99.90
7212;DHT22;3647;48.792;9.802;2024-03-08T16:49:15;9.70;99.90
7212;DHT22;3647;48.792;9.802;2024-03-08T16:51:43;9.60;99.90
7212;DHT22;3647;48.792;9.802;2024-03-08T16:54:10;10.90;99.90
7212;DHT22;3647;48.792;9.802;2024-03-08T16:56:37;10.20;99.90
7212;DHT22;3647;48.792;9.802;2024-03-08T16:59:05;10.60;99.90
7212;DHT22;3647;48.792;9.802;2024-03-08T17:01:33;9.20;99.90
7212;DHT22;3647;48.792;9.802;2024-03-08T17:04:01;9.20;99.90
7212;DHT22;3647;48.792;9.802;2024-03-08T17:06:27;9.20;99.90
7212;DHT22;3647;48.792;9.802;2024-03-08T17:08:57;9.20;99.90
7212;DHT22;3647;48.792;9.802;2024-03-08T17:11:25;9.10;99.90
7212;DHT22;3647;48.792;9.802;2024-03-08T17:13:51;11.90;99.90
7212;DHT22;3647;48.792;9.802;2024-03-08T17:16:19;11.70;99.90
7212;DHT22;3647;48.792;9.802;2024-03-08T17:18:49;10.50;99.90
7212;DHT22;3647;48.792;9.802;2024-03-08T17:21:16;9.60;99.90
7212;DHT22;3647;48.792;9.802;2024-03-08T17:23:43;8.80;99.90
7212;DHT22;3647;48.792;9.802;2024-03-08T17:26:12;8.70;99.90
7212;DHT22;3647;48.792;9.802;2024-03-08T17:28:39;8.70;99.90
7212;DHT22;3647;48.792;9.802;2024-03-08T17:31:07;8.60;99.90
7212;DHT22;3647;48.792;9.802;2024-03-08T17:33:37;8.60;99.90
7212;DHT22;3647;48.792;9.802;2024-03-08T17:36:07;8.50;99.90
7212;DHT22;3647;48.792;9.802;2024-03-08T17:38:37;8.50;99.90
7212;DHT22;3647;48.792;9.802;2024-03-08T17:41:09;10.30;99.90
7212;DHT22;3647;48.792;9.802;2024-03-08T17:43:39;8.40;99.90
7212;DHT22;3647;48.792;9.802;2024-03-08T17:46:06;8.40;99.90
7212;DHT22;3647;48.792;9.802;2024-03-08T17:48:33;9.70;99.90
7212;DHT22;3647;48.792;9.802;2024-03-08T17:51:01;8.20;99.90
7212;DHT22;3647;48.792;9.802;2024-03-08T17:53:28;8.20;99.90
7212;DHT22;3647;48.792;9.802;2024-03-08T17:55:56;8.80;99.90
7212;DHT22;3647;48.792;9.802;2024-03-08T17:58:23;9.00;99.90
7212;DHT22;3647;48.792;9.802;2024-03-08T18:00:53;8.20;99.90
7212;DHT22;3647;48.792;9.802;2024-03-08T18:03:20;10.50;99.90
7212;DHT22;3647;48.792;9.802;2024-03-08T18:05:53;8.30;99.90
7212;DHT22;3647;48.792;9.802;2024-03-08T18:08:20;8.10;99.90
7212;DHT22;3647;48.792;9.802;2024-03-08T18:10:47;8.10;99.90
7212;DHT22;3647;48.792;9.802;2024-03-08T18:13:14;8.00;99.90
7212;DHT22;3647;48.792;9.802;2024-03-08T18:15:43;8.10;99.90
7212;DHT22;3647;48.792;9.802;2024-03-08T18:18:13;8.10;99.90
7212;DHT22;3647;48.792;9.802;2024-03-08T18:20:40;10.50;99.90
7212;DHT22;3647;48.792;9.802;2024-03-08T18:23:12;10.40;99.90
7212;DHT22;3647;48.792;9.802;2024-03-08T18:25:40;8.00;99.90
7212;DHT22;3647;48.792;9.802;2024-03-08T18:28:07;8.00;99.90
7212;DHT22;3647;48.792;9.802;2024-03-08T18:30:35;7.90;99.90
7212;DHT22;3647;48.792;9.802;2024-03-08T18:33:04;8.40;99.90
7212;DHT22;3647;48.792;9.802;2024-03-08T18:35:34;7.80;99.90
7212;DHT22;3647;48.792;9.802;2024-03-08T18:38:03;7.80;99.90
7212;DHT22;3647;48.792;9.802;2024-03-08T18:40:32;8.70;99.90
7212;DHT22;3647;48.792;9.802;2024-03-08T18:42:59;7.70;99.90
7212;DHT22;3647;48.792;9.802;2024-03-08T18:45:26;7.70;99.90
7212;DHT22;3647;48.792;9.802;2024-03-08T18:47:54;7.70;99.90
7212;DHT22;3647;48.792;9.802;2024-03-08T18:50:23;7.70;99.90
7212;DHT22;3647;48.792;9.802;2024-03-08T18:52:52;7.60;99.90
7212;DHT22;3647;48.792;9.802;2024-03-08T18:55:19;7.60;99.90
7212;DHT22;3647;48.792;9.802;2024-03-08T18:57:50;7.80;99.90
7212;DHT22;3647;48.792;9.802;2024-03-08T19:00:17;7.70;99.90
7212;DHT22;3647;48.792;9.802;2024-03-08T19:02:48;9.50;99.90
7212;DHT22;3647;48.792;9.802;2024-03-08T19:05:16;7.60;99.90
7212;DHT22;3647;48.792;9.802;2024-03-08T19:07:43;7.60;99.90
7212;DHT22;3647;48.792;9.802;2024-03-08T19:10:12;9.10;99.90
7212;DHT22;3647;48.792;9.802;2024-03-08T19:12:44;7.70;99.90
7212;DHT22;3647;48.792;9.802;2024-03-08T19:15:13;8.20;99.90
7212;DHT22;3647;48.792;9.802;2024-03-08T19:17:42;7.50;99.90
7212;DHT22;3647;48.792;9.802;2024-03-08T19:20:09;7.50;99.90
7212;DHT22;3647;48.792;9.802;2024-03-08T19:22:42;7.40;99.90
7212;DHT22;3647;48.792;9.802;2024-03-08T19:25:09;8.80;99.90
7212;DHT22;3647;48.792;9.802;2024-03-08T19:27:38;7.40;99.90
7212;DHT22;3647;48.792;9.802;2024-03-08T19:30:08;8.20;99.90
7212;DHT22;3647;48.792;9.802;2024-03-08T19:32:39;7.40;99.90
7212;DHT22;3647;48.792;9.802;2024-03-08T19:35:07;7.40;99.90
7212;DHT22;3647;48.792;9.802;2024-03-08T19:37:37;7.40;99.90
7212;DHT22;3647;48.792;9.802;2024-03-08T19:40:10;7.40;99.90
7212;DHT22;3647;48.792;9.802;2024-03-08T19:42:42;7.40;99.90
7212;DHT22;3647;48.792;9.802;2024-03-08T19:45:11;7.40;99.90
7212;DHT22;3647;48.792;9.802;2024-03-08T19:47:38;7.30;99.90
7212;DHT22;3647;48.792;9.802;2024-03-08T19:50:08;7.30;99.90
7212;DHT22;3647;48.792;9.802;2024-03-08T19:52:35;7.30;99.90
7212;DHT22;3647;48.792;9.802;2024-03-08T19:55:02;7.30;99.90
7212;DHT22;3647;48.792;9.802;2024-03-08T19:57:29;7.30;99.90
7212;DHT22;3647;48.792;9.802;2024-03-08T19:59:57;9.60;99.90
7212;DHT22;3647;48.792;9.802;2024-03-08T20:02:24;9.20;99.90
7212;DHT22;3647;48.792;9.802;2024-03-08T20:04:52;7.20;99.90
7212;DHT22;3647;48.792;9.802;2024-03-08T20:07:21;8.10;99.90
7212;DHT22;3647;48.792;9.802;2024-03-08T20:09:48;7.30;99.90
7212;DHT22;3647;48.792;9.802;2024-03-08T20:12:15;7.30;99.90
7212;DHT22;3647;48.792;9.802;2024-03-08T20:14:42;7.80;99.90
7212;DHT22;3647;48.792;9.802;2024-03-08T20:17:11;8.30;99.90
7212;DHT22;3647;48.792;9.802;2024-03-08T20:19:38;7.50;99.90
7212;DHT22;3647;48.792;9.802;2024-03-08T20:22:05;7.30;99.90
7212;DHT22;3647;48.792;9.802;2024-03-08T20:24:32;7.30;99.90
7212;DHT22;3647;48.792;9.802;2024-03-08T20:27:05;7.40;99.90
7212;DHT22;3647;48.792;9.802;2024-03-08T20:29:39;7.30;99.90
7212;DHT22;3647;48.792;9.802;2024-03-08T20:32:28;7.40;99.90
7212;DHT22;3647;48.792;9.802;2024-03-08T20:34:57;7.40;99.90
7212;DHT22;3647;48.792;9.802;2024-03-08T20:37:43;8.20;99.90
7212;DHT22;3647;48.792;9.802;2024-03-08T20:40:15;6.60;99.90
7212;DHT22;3647;48.792;9.802;2024-03-08T20:42:49;7.30;99.90
7212;DHT22;3647;48.792;9.802;2024-03-08T20:45:21;10.10;99.90
7212;DHT22;3647;48.792;9.802;2024-03-08T20:47:53;7.40;99.90
7212;DHT22;3647;48.792;9.802;2024-03-08T20:50:20;9.60;99.90
7212;DHT22;3647;48.792;9.802;2024-03-08T20:52:52;7.20;99.90
7212;DHT22;3647;48.792;9.802;2024-03-08T20:55:37;8.20;99.90
7212;DHT22;3647;48.792;9.802;2024-03-08T20:58:05;5.30;99.90
7212;DHT22;3647;48.792;9.802;2024-03-08T21:00:32;6.90;99.90
7212;DHT22;3647;48.792;9.802;2024-03-08T21:03:12;6.70;99.90
7212;DHT22;3647;48.792;9.802;2024-03-08T21:05:43;4.90;99.90
7212;DHT22;3647;48.792;9.802;2024-03-08T21:10:46;8.70;99.90
7212;DHT22;3647;48.792;9.802;2024-03-08T21:13:16;6.60;99.90
7212;DHT22;3647;48.792;9.802;2024-03-08T21:18:16;6.40;99.90
7212;DHT22;3647;48.792;9.802;2024-03-08T21:23:17;6.40;99.90
7212;DHT22;3647;48.792;9.802;2024-03-08T21:28:16;6.30;99.90
7212;DHT22;3647;48.792;9.802;2024-03-08T21:30:49;3.70;99.90
7212;DHT22;3647;48.792;9.802;2024-03-08T21:33:19;6.20;99.90
7212;DHT22;3647;48.792;9.802;2024-03-08T21:38:19;6.20;99.90
7212;DHT22;3647;48.792;9.802;2024-03-08T21:43:16;6.30;99.90
7212;DHT22;3647;48.792;9.802;2024-03-08T21:45:50;6.80;99.90
7212;DHT22;3647;48.792;9.802;2024-03-08T21:48:21;7.00;99.90
7212;DHT22;3647;48.792;9.802;2024-03-08T21:50:48;4.40;99.90
7212;DHT22;3647;48.792;9.802;2024-03-08T21:53:17;6.70;99.90
7212;DHT22;3647;48.792;9.802;2024-03-08T21:55:50;6.90;99.90
7212;DHT22;3647;48.792;9.802;2024-03-08T21:58:17;7.00;99.90
7212;DHT22;3647;48.792;9.802;2024-03-08T22:03:12;6.40;99.90
7212;DHT22;3647;48.792;9.802;2024-03-08T22:05:45;6.70;99.90
7212;DHT22;3647;48.792;9.802;2024-03-08T22:08:14;6.50;99.90
7212;DHT22;3647;48.792;9.802;2024-03-08T22:10:47;6.20;99.90
7212;DHT22;3647;48.792;9.802;2024-03-08T22:13:18;6.30;99.90
7212;DHT22;3647;48.792;9.802;2024-03-08T22:15:47;8.00;99.90
7212;DHT22;3647;48.792;9.802;2024-03-08T22:18:16;6.50;99.90
7212;DHT22;3647;48.792;9.802;2024-03-08T22:20:57;6.70;99.90
7212;DHT22;3647;48.792;9.802;2024-03-08T22:23:39;5.80;99.90
7212;DHT22;3647;48.792;9.802;2024-03-08T22:26:06;6.40;99.90
7212;DHT22;3647;48.792;9.802;2024-03-08T22:28:40;6.30;99.90
7212;DHT22;3647;48.792;9.802;2024-03-08T22:31:17;3.60;99.90
7212;DHT22;3647;48.792;9.802;2024-03-08T22:36:41;5.70;99.90
7212;DHT22;3647;48.792;9.802;2024-03-08T22:39:17;5.80;99.90
7212;DHT22;3647;48.792;9.802;2024-03-08T22:41:55;5.70;99.90
